Time;durP1;ratioP1;P1;durP2;ratioP2;P2;SDS_P1;SDS_P2;PMS_P1;PMS_P2;Temp;Humidity;BMP_temperature;BMP_pressure;BME280_temperature;BME280_humidity;BME280_pressure;Samples;Min_cycle;Max_cycle;Signal;HPM_P1;HPM_P2
2024/02/07 00:02:19;;;;;;;;;;;;;;;16.94;45.20;98449.16;10244486;28;885;-67
2024/02/07 00:07:14;;;;;;;;;;;;;;;16.92;45.30;98439.69;10244141;28;1961;-67
2024/02/07 00:12:10;;;;;;;;;;;;;;;16.90;45.42;98431.91;10244358;28;827;-67
2024/02/07 00:17:06;;;;;;;;;;;;;;;16.87;45.38;98418.88;10244064;28;873;-67
2024/02/07 00:22:03;;;;;;;;;;;;;;;16.84;45.23;98419.09;10242751;28;878;-67
2024/02/07 00:26:59;;;;;;;;;;;;;;;16.82;45.30;98432.34;10247725;28;1947;-67
2024/02/07 00:31:55;;;;;;;;;;;;;;;16.80;45.58;98422.84;10251139;28;1181;-67
2024/02/07 00:36:50;;;;;;;;;;;;;;;16.78;45.37;98391.34;10250865;28;914;-67
2024/02/07 00:41:46;;;;;;;;;;;;;;;16.77;45.44;98401.97;10251202;28;940;-67
2024/02/07 00:46:43;;;;;;;;;;;;;;;16.75;45.45;98393.31;10251053;28;1914;-67
2024/02/07 00:51:39;;;;;;;;;;;;;;;16.74;45.61;98397.72;10251199;28;790;-67
2024/02/07 00:56:35;;;;;;;;;;;;;;;16.70;45.69;98383.06;10249552;28;917;-67
2024/02/07 01:01:31;;;;;;;;;;;;;;;16.69;45.83;98364.72;10250079;28;1557;-67
2024/02/07 01:06:27;;;;;;;;;;;;;;;16.68;45.68;98363.88;10249523;28;1961;-67
2024/02/07 01:11:22;;;;;;;;;;;;;;;16.66;45.82;98349.97;10249493;28;937;-67
2024/02/07 01:16:19;;;;;;;;;;;;;;;16.63;45.81;98358.88;10249313;28;811;-67
2024/02/07 01:21:14;;;;;;;;;;;;;;;16.63;45.85;98368.56;10249601;28;881;-67
2024/02/07 01:26:13;;;;;;;;;;;;;;;16.62;45.96;98356.38;10249741;28;1957;-68
2024/02/07 01:31:14;;;;;;;;;;;;;;;16.61;46.10;98357.28;10249211;28;1177;-67
2024/02/07 01:36:10;;;;;;;;;;;;;;;16.58;45.83;98341.69;10248107;28;1308;-67
2024/02/07 01:41:06;;;;;;;;;;;;;;;16.59;45.81;98348.66;10248505;28;908;-68
2024/02/07 01:46:02;;;;;;;;;;;;;;;16.57;46.02;98342.66;10248916;28;1906;-67
2024/02/07 01:50:58;;;;;;;;;;;;;;;16.55;46.15;98339.25;10248535;28;810;-67
2024/02/07 01:55:54;;;;;;;;;;;;;;;16.54;46.22;98340.22;10248156;28;800;-67
2024/02/07 02:00:50;;;;;;;;;;;;;;;16.52;46.19;98327.13;10248502;28;765;-67
2024/02/07 02:05:45;;;;;;;;;;;;;;;16.51;46.04;98335.97;10247260;28;1898;-67
2024/02/07 02:10:41;;;;;;;;;;;;;;;16.50;46.11;98325.53;10247823;28;810;-67
2024/02/07 02:15:37;;;;;;;;;;;;;;;16.50;45.97;98339.53;10247735;28;787;-68
2024/02/07 02:20:36;;;;;;;;;;;;;;;16.50;46.33;98315.00;10246811;28;849;-67
2024/02/07 02:25:32;;;;;;;;;;;;;;;16.48;46.10;98333.53;10247215;28;1898;-67
2024/02/07 02:30:34;;;;;;;;;;;;;;;16.47;46.35;98326.56;10247320;28;1131;-67
2024/02/07 02:35:31;;;;;;;;;;;;;;;16.47;46.26;98312.56;10246143;28;906;-67
2024/02/07 02:40:29;;;;;;;;;;;;;;;16.46;46.22;98306.47;10246891;28;1085;-67
2024/02/07 02:45:25;;;;;;;;;;;;;;;16.45;46.31;98294.25;10245377;28;1029;-67
2024/02/07 02:50:25;;;;;;;;;;;;;;;16.44;46.36;98311.81;10246225;28;1918;-67
2024/02/07 02:55:21;;;;;;;;;;;;;;;16.43;46.32;98318.03;10245535;28;767;-68
2024/02/07 03:00:20;;;;;;;;;;;;;;;16.42;46.23;98316.31;10244740;28;1156;-67
2024/02/07 03:10:30;;;;;;;;;;;;;;;16.40;46.34;98326.09;10244697;28;625;-67
2024/02/07 03:15:26;;;;;;;;;;;;;;;16.40;46.27;98301.56;10244855;28;811;-67
2024/02/07 03:20:22;;;;;;;;;;;;;;;16.40;46.37;98334.00;10244086;28;934;-67
2024/02/07 03:25:20;;;;;;;;;;;;;;;16.47;46.36;98276.59;10244555;28;1550;-67
2024/02/07 03:30:15;;;;;;;;;;;;;;;16.51;46.20;98287.78;10244272;28;1969;-67
2024/02/07 03:35:11;;;;;;;;;;;;;;;16.49;46.08;98293.13;10244611;28;1009;-67
2024/02/07 03:40:13;;;;;;;;;;;;;;;16.51;46.09;98338.59;10244182;28;880;-67
2024/02/07 03:45:09;;;;;;;;;;;;;;;16.51;46.11;98351.75;10244067;28;786;-67
2024/02/07 03:50:05;;;;;;;;;;;;;;;16.54;45.95;98356.00;10244537;28;1971;-67
2024/02/07 03:55:01;;;;;;;;;;;;;;;16.55;45.83;98381.34;10243837;28;938;-67
2024/02/07 03:59:57;;;;;;;;;;;;;;;16.56;45.86;98391.78;10245090;28;830;-68
2024/02/07 04:04:53;;;;;;;;;;;;;;;16.57;45.74;98395.25;10252608;28;933;-68
2024/02/07 04:09:49;;;;;;;;;;;;;;;16.59;45.81;98393.38;10251729;28;1944;-68
2024/02/07 05:17:23;;;;;;;;;;;;;;;16.95;45.53;98477.22;10249026;28;668;-67
2024/02/07 05:22:19;;;;;;;;;;;;;;;16.97;45.36;98488.47;10249533;28;855;-67
2024/02/07 05:27:17;;;;;;;;;;;;;;;17.02;45.44;98498.72;10249451;28;1970;-67
2024/02/07 05:32:13;;;;;;;;;;;;;;;17.04;45.30;98502.13;10248517;28;1181;-67
2024/02/07 05:37:09;;;;;;;;;;;;;;;17.05;45.33;98514.34;10248576;28;966;-67
2024/02/07 05:42:05;;;;;;;;;;;;;;;17.10;45.16;98528.06;10248427;28;937;-67
2024/02/07 05:47:01;;;;;;;;;;;;;;;17.10;45.07;98538.59;10248136;28;1973;-67
2024/02/07 05:51:57;;;;;;;;;;;;;;;17.12;45.08;98542.00;10248096;28;978;-67
2024/02/07 05:56:53;;;;;;;;;;;;;;;17.14;45.15;98558.56;10248450;28;799;-67
2024/02/07 06:01:49;;;;;;;;;;;;;;;17.14;45.30;98560.34;10247647;28;1054;-67
2024/02/07 06:06:49;;;;;;;;;;;;;;;17.18;45.02;98564.47;10247594;28;1894;-67
2024/02/07 06:11:45;;;;;;;;;;;;;;;17.19;45.21;98555.66;10247246;28;868;-68
2024/02/07 06:16:41;;;;;;;;;;;;;;;17.19;45.07;98567.03;10247093;28;858;-68
2024/02/07 06:21:37;;;;;;;;;;;;;;;17.23;44.96;98563.25;10247933;28;811;-69
2024/02/07 06:26:33;;;;;;;;;;;;;;;17.25;45.14;98564.03;10247552;28;1902;-68
2024/02/07 06:31:28;;;;;;;;;;;;;;;17.26;44.97;98556.97;10246483;28;1181;-68
2024/02/07 06:36:24;;;;;;;;;;;;;;;17.28;45.12;98563.84;10246311;28;811;-67
2024/02/07 06:41:20;;;;;;;;;;;;;;;17.30;44.97;98572.50;10246026;28;783;-68
2024/02/07 06:46:16;;;;;;;;;;;;;;;17.31;45.00;98576.81;10245968;28;1910;-68
2024/02/07 06:51:12;;;;;;;;;;;;;;;17.35;45.10;98581.91;10246002;28;766;-67
2024/02/07 06:56:08;;;;;;;;;;;;;;;17.35;45.10;98580.13;10245517;28;850;-68
2024/02/07 07:01:04;;;;;;;;;;;;;;;17.36;45.10;98578.34;10245404;28;972;-67
2024/02/07 07:06:00;;;;;;;;;;;;;;;17.37;45.10;98575.63;10245122;28;1901;-68
2024/02/07 07:10:56;;;;;;;;;;;;;;;17.39;45.20;98580.78;10245040;28;961;-68
2024/02/07 07:15:51;;;;;;;;;;;;;;;17.39;45.11;98586.06;10245494;28;847;-69
2024/02/07 07:20:47;;;;;;;;;;;;;;;17.39;45.04;98588.69;10244738;28;896;-67
2024/02/07 07:25:43;;;;;;;;;;;;;;;17.41;45.12;98603.47;10245098;28;1955;-68
2024/02/07 07:30:39;;;;;;;;;;;;;;;17.40;44.99;98603.56;10243757;28;1239;-67
2024/02/07 07:35:35;;;;;;;;;;;;;;;17.39;45.08;98607.13;10244359;28;857;-69
2024/02/07 07:40:31;;;;;;;;;;;;;;;17.38;45.09;98601.00;10243751;28;890;-67
2024/02/07 07:45:27;;;;;;;;;;;;;;;17.35;45.04;98589.81;10244789;28;858;-68
2024/02/07 07:50:23;;;;;;;;;;;;;;;17.32;44.94;98590.84;10243890;28;1976;-68
2024/02/07 07:55:19;;;;;;;;;;;;;;;17.31;44.84;98594.41;10244458;28;902;-68
2024/02/07 08:00:15;;;;;;;;;;;;;;;17.30;45.15;98600.63;10243832;28;904;-68
2024/02/07 08:05:11;;;;;;;;;;;;;;;17.29;45.17;98618.22;10243739;28;977;-69
2024/02/07 08:10:07;;;;;;;;;;;;;;;17.29;45.14;98612.94;10244282;28;1898;-68
2024/02/07 08:15:02;;;;;;;;;;;;;;;17.30;45.07;98612.00;10244790;28;913;-68
2024/02/07 08:19:58;;;;;;;;;;;;;;;17.28;44.99;98602.50;10243687;28;902;-68
2024/02/07 08:24:54;;;;;;;;;;;;;;;17.31;45.17;98616.31;10243456;28;885;-68
2024/02/07 08:29:50;;;;;;;;;;;;;;;17.34;45.05;98617.09;10242878;28;1902;-68
2024/02/07 08:34:46;;;;;;;;;;;;;;;17.34;45.00;98617.91;10243860;28;894;-68
2024/02/07 08:39:42;;;;;;;;;;;;;;;17.38;45.50;98643.16;10243371;28;835;-68
2024/02/07 08:44:38;;;;;;;;;;;;;;;17.38;45.79;98631.78;10242392;28;846;-68
2024/02/07 08:49:34;;;;;;;;;;;;;;;17.38;46.66;98634.41;10249673;28;1913;-68
2024/02/07 08:54:32;;;;;;;;;;;;;;;17.36;47.38;98625.75;10250258;28;819;-67
2024/02/07 08:59:28;;;;;;;;;;;;;;;17.37;47.85;98624.78;10249817;28;1036;-68
2024/02/07 09:04:24;;;;;;;;;;;;;;;17.40;48.45;98608.84;10250620;28;792;-68
2024/02/07 09:09:20;;;;;;;;;;;;;;;17.34;48.44;98617.91;10249667;28;1894;-68
2024/02/07 09:14:15;;;;;;;;;;;;;;;17.29;48.18;98622.63;10249486;28;901;-68
2024/02/07 09:19:11;;;;;;;;;;;;;;;17.27;47.95;98641.16;10250026;28;866;-68
2024/02/07 09:24:07;;;;;;;;;;;;;;;17.22;47.68;98648.47;10249771;28;842;-68
2024/02/07 09:29:03;;;;;;;;;;;;;;;17.19;47.24;98647.81;10248568;28;1898;-67
2024/02/07 09:33:59;;;;;;;;;;;;;;;17.15;47.21;98652.41;10249233;28;498;-68
2024/02/07 09:38:55;;;;;;;;;;;;;;;17.13;47.05;98677.97;10249163;28;763;-69
2024/02/07 09:43:51;;;;;;;;;;;;;;;17.12;46.84;98678.91;10248405;28;827;-68
2024/02/07 09:48:47;;;;;;;;;;;;;;;17.11;46.76;98686.88;10248361;28;1969;-68
2024/02/07 09:53:43;;;;;;;;;;;;;;;17.12;46.47;98694.69;10248664;28;928;-68
2024/02/07 09:58:38;;;;;;;;;;;;;;;17.13;46.42;98692.91;10247308;28;952;-68
2024/02/07 10:03:34;;;;;;;;;;;;;;;17.13;46.43;98696.38;10248732;28;849;-68
2024/02/07 10:08:30;;;;;;;;;;;;;;;17.13;46.26;98685.84;10248104;28;1906;-67
2024/02/07 10:13:26;;;;;;;;;;;;;;;17.16;46.19;98688.34;10247302;28;941;-67
2024/02/07 10:18:22;;;;;;;;;;;;;;;17.17;45.94;98686.56;10247646;28;790;-67
2024/02/07 10:23:18;;;;;;;;;;;;;;;17.17;46.11;98682.13;10246305;28;815;-67
2024/02/07 10:28:14;;;;;;;;;;;;;;;17.18;46.05;98688.22;10247191;28;1953;-69
2024/02/07 10:33:10;;;;;;;;;;;;;;;17.18;45.85;98698.78;10247531;28;1252;-68
2024/02/07 10:38:05;;;;;;;;;;;;;;;17.20;45.95;98686.38;10246220;28;988;-70
2024/02/07 10:43:02;;;;;;;;;;;;;;;17.22;45.60;98684.50;10246680;28;830;-68
2024/02/07 10:47:59;;;;;;;;;;;;;;;17.25;45.58;98692.22;10246396;28;1914;-68
2024/02/07 10:52:55;;;;;;;;;;;;;;;17.27;45.55;98693.00;10245789;28;798;-67
2024/02/07 10:57:51;;;;;;;;;;;;;;;17.29;45.47;98704.25;10246192;28;849;-68
2024/02/07 11:02:49;;;;;;;;;;;;;;;17.29;45.67;98702.50;10245416;28;943;-69
2024/02/07 11:07:45;;;;;;;;;;;;;;;17.31;45.38;98673.41;10245081;28;1870;-68
2024/02/07 11:12:41;;;;;;;;;;;;;;;17.32;45.45;98675.13;10245344;28;1146;-67
2024/02/07 11:17:37;;;;;;;;;;;;;;;17.33;45.47;98686.50;10244852;28;868;-69
2024/02/07 11:22:33;;;;;;;;;;;;;;;17.34;45.63;98670.59;10244756;28;868;-68
2024/02/07 11:27:29;;;;;;;;;;;;;;;17.35;45.54;98674.09;10244503;28;1951;-69
2024/02/07 11:32:25;;;;;;;;;;;;;;;17.38;45.64;98679.19;10244860;28;1321;-68
2024/02/07 11:37:24;;;;;;;;;;;;;;;17.38;45.55;98647.59;10244338;28;815;-68
2024/02/07 11:42:20;;;;;;;;;;;;;;;17.38;45.66;98645.78;10244546;28;929;-68
2024/02/07 11:47:16;;;;;;;;;;;;;;;17.40;45.60;98641.28;10244307;28;1902;-67
2024/02/07 11:52:12;;;;;;;;;;;;;;;17.42;45.22;98663.13;10244004;28;928;-67
2024/02/07 11:57:08;;;;;;;;;;;;;;;17.41;45.53;98645.59;10244513;28;795;-68
2024/02/07 12:02:04;;;;;;;;;;;;;;;17.45;45.50;98656.81;10244390;28;845;-67
2024/02/07 12:07:01;;;;;;;;;;;;;;;17.45;45.37;98664.72;10243052;28;1898;-69
2024/02/07 12:11:57;;;;;;;;;;;;;;;17.45;45.34;98652.41;10243616;28;848;-68
2024/02/07 12:16:53;;;;;;;;;;;;;;;17.46;45.37;98658.50;10243835;28;834;-67
2024/02/07 12:21:49;;;;;;;;;;;;;;;17.45;45.32;98652.41;10244132;28;1941;-68
2024/02/07 12:26:45;;;;;;;;;;;;;;;17.45;45.47;98660.31;10223244;28;1893;-67
2024/02/07 12:31:41;;;;;;;;;;;;;;;17.46;45.34;98642.69;10211282;28;1329;-67
2024/02/07 12:36:37;;;;;;;;;;;;;;;17.47;45.39;98631.22;10243582;28;1882;-67
2024/02/07 12:41:32;;;;;;;;;;;;;;;17.47;45.46;98623.31;10250825;28;771;-68
2024/02/07 12:46:28;;;;;;;;;;;;;;;17.49;45.39;98635.44;10250526;28;1918;-68
2024/02/07 12:51:24;;;;;;;;;;;;;;;17.49;45.28;98632.81;10250428;28;776;-68
2024/02/07 12:56:23;;;;;;;;;;;;;;;17.49;45.45;98617.00;10250949;28;807;-68
2024/02/07 13:01:18;;;;;;;;;;;;;;;17.50;45.35;98605.56;10250594;28;927;-68
2024/02/07 13:06:14;;;;;;;;;;;;;;;17.52;45.40;98623.88;10250382;28;1951;-68
2024/02/07 13:11:10;;;;;;;;;;;;;;;17.52;45.24;98631.78;10250286;28;848;-67
2024/02/07 13:16:06;;;;;;;;;;;;;;;17.52;45.54;98639.69;10249510;28;775;-68
2024/02/07 13:21:05;;;;;;;;;;;;;;;17.50;45.35;98633.66;10249494;28;798;-68
2024/02/07 13:26:01;;;;;;;;;;;;;;;17.54;45.45;98632.56;10249760;28;1959;-68
2024/02/07 13:30:57;;;;;;;;;;;;;;;17.55;45.12;98634.22;10248874;28;1918;-67
2024/02/07 13:35:53;;;;;;;;;;;;;;;17.57;45.25;98629.72;10247907;28;893;-68
2024/02/07 13:40:49;;;;;;;;;;;;;;;17.56;45.40;98638.59;10249219;28;869;-67
2024/02/07 13:45:45;;;;;;;;;;;;;;;17.56;45.27;98630.69;10248991;28;917;-67
2024/02/07 13:50:41;;;;;;;;;;;;;;;17.55;45.43;98633.38;10249044;28;1910;-75
2024/02/07 13:55:37;;;;;;;;;;;;;;;17.58;45.19;98623.53;10248027;28;796;-68
2024/02/07 14:00:33;;;;;;;;;;;;;;;17.61;45.29;98625.97;10247746;28;875;-68
2024/02/07 14:05:28;;;;;;;;;;;;;;;17.60;45.18;98619.00;10247999;28;830;-67
2024/02/07 14:10:24;;;;;;;;;;;;;;;17.62;45.16;98617.13;10247794;28;1905;-67
2024/02/07 14:15:20;;;;;;;;;;;;;;;17.60;45.25;98619.00;10247044;28;972;-68
2024/02/07 14:20:16;;;;;;;;;;;;;;;17.63;45.13;98615.34;10246231;28;1056;-67
2024/02/07 14:25:12;;;;;;;;;;;;;;;17.64;45.33;98619.69;10247237;28;885;-67
2024/02/07 14:30:08;;;;;;;;;;;;;;;17.64;45.22;98622.31;10246849;28;1898;-67
2024/02/07 14:35:05;;;;;;;;;;;;;;;17.63;45.35;98621.47;10245674;28;782;-67
2024/02/07 14:40:02;;;;;;;;;;;;;;;17.61;45.29;98612.81;10246681;28;955;-68
2024/02/07 14:44:58;;;;;;;;;;;;;;;17.60;45.44;98605.81;10245614;28;879;-68
2024/02/07 14:49:54;;;;;;;;;;;;;;;17.57;45.23;98594.63;10245622;28;1977;-67
2024/02/07 14:54:50;;;;;;;;;;;;;;;17.53;45.46;98601.88;10245801;28;861;-67
2024/02/07 14:59:46;;;;;;;;;;;;;;;17.51;45.50;98601.97;10245311;28;918;-67
2024/02/07 15:04:41;;;;;;;;;;;;;;;17.49;45.36;98608.25;10245140;28;956;-67
2024/02/07 15:09:37;;;;;;;;;;;;;;;17.49;45.52;98610.91;10244899;28;1894;-67
2024/02/07 15:14:33;;;;;;;;;;;;;;;17.47;45.45;98602.22;10244800;28;918;-68
2024/02/07 15:19:29;;;;;;;;;;;;;;;17.47;45.47;98605.72;10244009;28;1412;-68
2024/02/07 15:24:25;;;;;;;;;;;;;;;17.48;45.32;98611.84;10244554;28;948;-67
2024/02/07 15:29:21;;;;;;;;;;;;;;;17.47;45.37;98596.97;10244553;28;1898;-68
2024/02/07 15:34:16;;;;;;;;;;;;;;;17.48;45.47;98588.97;10244604;28;885;-68
2024/02/07 15:39:12;;;;;;;;;;;;;;;17.49;45.45;98576.66;10244152;28;996;-67
2024/02/07 15:44:09;;;;;;;;;;;;;;;17.49;45.48;98574.03;10244573;28;888;-67
2024/02/07 15:49:05;;;;;;;;;;;;;;;17.50;45.35;98565.16;10243831;28;1976;-67
2024/02/07 15:54:01;;;;;;;;;;;;;;;17.50;45.43;98565.16;10243750;28;974;-67
2024/02/07 15:58:57;;;;;;;;;;;;;;;17.51;45.43;98567.72;10254771;28;825;-67
2024/02/07 16:03:53;;;;;;;;;;;;;;;17.52;45.26;98558.03;10257718;28;879;-67
2024/02/07 16:08:50;;;;;;;;;;;;;;;17.50;45.30;98558.13;10256834;28;1898;-68
2024/02/07 16:13:46;;;;;;;;;;;;;;;17.51;45.41;98561.59;10257451;28;924;-67
2024/02/07 16:18:43;;;;;;;;;;;;;;;17.53;45.35;98565.00;10257333;28;870;-67
2024/02/07 16:23:39;;;;;;;;;;;;;;;17.52;45.22;98563.28;10257260;28;870;-68
2024/02/07 16:28:35;;;;;;;;;;;;;;;17.55;45.44;98555.19;10257078;28;1898;-67
2024/02/07 16:33:31;;;;;;;;;;;;;;;17.54;45.31;98558.78;10256355;28;1413;-67
2024/02/07 16:38:27;;;;;;;;;;;;;;;17.52;45.38;98555.38;10256979;28;957;-67
2024/02/07 16:43:23;;;;;;;;;;;;;;;17.53;45.33;98550.03;10256427;28;827;-68
2024/02/07 16:48:19;;;;;;;;;;;;;;;17.55;45.43;98543.81;10255529;28;1898;-68
2024/02/07 16:53:15;;;;;;;;;;;;;;;17.53;45.60;98557.09;10256100;28;818;-67
2024/02/07 16:58:10;;;;;;;;;;;;;;;17.56;45.55;98556.91;10256673;28;870;-69
2024/02/07 17:03:06;;;;;;;;;;;;;;;17.56;45.40;98553.44;10255781;28;965;-68
2024/02/07 17:08:02;;;;;;;;;;;;;;;17.55;45.53;98552.56;10254320;28;1902;-67
2024/02/07 17:12:59;;;;;;;;;;;;;;;17.58;45.51;98562.06;10250093;28;865;-68
2024/02/07 17:17:55;;;;;;;;;;;;;;;17.58;45.46;98552.41;10249251;28;1006;-68
2024/02/07 17:22:51;;;;;;;;;;;;;;;17.58;45.58;98546.25;10249880;28;858;-68
2024/02/07 17:27:47;;;;;;;;;;;;;;;17.56;45.44;98545.53;10248848;28;1978;-68
2024/02/07 17:32:45;;;;;;;;;;;;;;;17.57;45.44;98553.31;10249169;28;1124;-68
2024/02/07 17:37:41;;;;;;;;;;;;;;;17.59;45.68;98542.69;10248538;28;806;-68
2024/02/07 17:42:37;;;;;;;;;;;;;;;17.62;45.48;98542.50;10247888;28;1275;-68
2024/02/07 17:47:34;;;;;;;;;;;;;;;17.60;45.83;98536.47;10247482;28;1918;-68
2024/02/07 17:52:29;;;;;;;;;;;;;;;17.60;45.81;98536.47;10248308;28;794;-68
2024/02/07 17:57:25;;;;;;;;;;;;;;;17.61;45.62;98533.75;10247155;28;1007;-68
2024/02/07 18:02:21;;;;;;;;;;;;;;;17.62;45.52;98535.44;10247581;28;755;-68
2024/02/07 18:07:17;;;;;;;;;;;;;;;17.62;45.77;98534.59;10247303;28;1949;-68
2024/02/07 18:12:13;;;;;;;;;;;;;;;17.64;45.61;98530.09;10247212;28;926;-68
2024/02/07 18:17:09;;;;;;;;;;;;;;;17.62;45.51;98530.16;10247197;28;910;-68
2024/02/07 18:22:05;;;;;;;;;;;;;;;17.65;45.39;98529.13;10246888;28;867;-68
2024/02/07 18:27:00;;;;;;;;;;;;;;;17.64;45.56;98527.44;10246527;28;1901;-68
2024/02/07 18:31:56;;;;;;;;;;;;;;;17.64;45.62;98528.28;10246989;28;1458;-68
2024/02/07 18:36:52;;;;;;;;;;;;;;;17.67;45.48;98525.47;10245797;28;913;-68
2024/02/07 18:41:51;;;;;;;;;;;;;;;17.66;45.55;98507.97;10246028;28;916;-68
2024/02/07 18:46:47;;;;;;;;;;;;;;;17.66;45.39;98502.69;10245739;28;1914;-68
2024/02/07 18:51:43;;;;;;;;;;;;;;;17.67;45.55;98507.00;10246280;28;846;-68
2024/02/07 18:56:39;;;;;;;;;;;;;;;17.67;45.45;98493.84;10246069;28;923;-68
2024/02/07 19:01:35;;;;;;;;;;;;;;;17.66;45.59;98500.06;10245870;28;1187;-68
2024/02/07 19:06:31;;;;;;;;;;;;;;;17.69;45.33;98499.03;10245111;28;1961;-68
2024/02/07 19:11:27;;;;;;;;;;;;;;;17.67;45.35;98507.00;10245731;28;956;-68
2024/02/07 19:16:23;;;;;;;;;;;;;;;17.68;45.40;98506.09;10244272;28;909;-68
2024/02/07 19:21:19;;;;;;;;;;;;;;;17.69;45.39;98497.22;10244663;28;791;-68
2024/02/07 19:26:15;;;;;;;;;;;;;;;17.70;45.25;98490.16;10245001;28;1898;-68
2024/02/07 19:31:11;;;;;;;;;;;;;;;17.69;45.23;98478.78;10243317;28;1201;-68
2024/02/07 19:36:07;;;;;;;;;;;;;;;17.71;45.46;98476.91;10244367;28;874;-68
2024/02/07 19:41:03;;;;;;;;;;;;;;;17.71;45.33;98462.84;10244678;28;814;-68
2024/02/07 19:45:59;;;;;;;;;;;;;;;17.70;45.30;98454.09;10243385;28;814;-68
2024/02/07 19:50:54;;;;;;;;;;;;;;;17.71;45.35;98449.69;10243779;28;1906;-68
2024/02/07 19:55:50;;;;;;;;;;;;;;;17.70;45.47;98455.91;10243771;28;932;-69
2024/02/07 20:00:46;;;;;;;;;;;;;;;17.72;45.30;98465.41;10243602;28;775;-68
2024/02/07 20:05:42;;;;;;;;;;;;;;;17.72;45.36;98467.22;10244168;28;874;-68
2024/02/07 20:10:38;;;;;;;;;;;;;;;17.71;45.32;98462.84;10244439;28;1894;-68
2024/02/07 20:15:34;;;;;;;;;;;;;;;17.72;45.27;98462.78;10244196;28;806;-68
2024/02/07 20:20:30;;;;;;;;;;;;;;;17.73;45.27;98469.72;10242729;28;1009;-68
2024/02/07 20:25:26;;;;;;;;;;;;;;;17.72;45.35;98462.78;10243743;28;827;-68
2024/02/07 20:30:22;;;;;;;;;;;;;;;17.73;45.20;98451.28;10243115;28;1951;-68
2024/02/07 20:35:18;;;;;;;;;;;;;;;17.70;45.39;98443.56;10243751;28;859;-68
2024/02/07 20:40:14;;;;;;;;;;;;;;;17.71;45.17;98433.88;10243568;28;985;-68
2024/02/07 20:45:10;;;;;;;;;;;;;;;17.69;45.38;98423.44;10248616;28;846;-68
2024/02/07 20:50:06;;;;;;;;;;;;;;;17.68;45.43;98421.75;10250259;28;1918;-68
2024/02/07 20:55:02;;;;;;;;;;;;;;;17.69;45.40;98425.25;10250806;28;1600;-68
2024/02/07 20:59:58;;;;;;;;;;;;;;;17.67;45.44;98427.97;10251107;28;855;-68
2024/02/07 21:04:54;;;;;;;;;;;;;;;17.66;45.20;98431.56;10249872;28;830;-68
2024/02/07 21:09:50;;;;;;;;;;;;;;;17.65;45.49;98421.94;10249772;28;1898;-68
2024/02/07 21:14:45;;;;;;;;;;;;;;;17.65;45.26;98418.47;10250198;28;853;-70
2024/02/07 21:19:41;;;;;;;;;;;;;;;17.64;45.42;98411.50;10250152;28;942;-68
2024/02/07 21:24:39;;;;;;;;;;;;;;;17.61;45.41;98407.28;10248738;28;980;-68
2024/02/07 21:29:36;;;;;;;;;;;;;;;17.60;45.45;98408.22;10249198;28;1948;-68
2024/02/07 21:34:33;;;;;;;;;;;;;;;17.59;45.44;98410.97;10249406;28;950;-68
2024/02/07 21:39:29;;;;;;;;;;;;;;;17.59;45.44;98409.16;10248751;28;863;-68
2024/02/07 21:44:24;;;;;;;;;;;;;;;17.57;45.41;98411.03;10249202;28;987;-68
2024/02/07 21:49:20;;;;;;;;;;;;;;;17.55;45.22;98409.44;10248358;28;1981;-68
2024/02/07 21:54:16;;;;;;;;;;;;;;;17.52;45.26;98407.84;10247339;28;822;-68
2024/02/07 21:59:12;;;;;;;;;;;;;;;17.51;45.33;98396.47;10248054;28;894;-68
2024/02/07 22:04:08;;;;;;;;;;;;;;;17.50;45.32;98409.72;10248169;28;858;-68
2024/02/07 22:09:04;;;;;;;;;;;;;;;17.48;45.25;98406.38;10247602;28;1910;-68
2024/02/07 22:14:01;;;;;;;;;;;;;;;17.45;45.38;98417.94;10248056;28;892;-68
2024/02/07 22:18:57;;;;;;;;;;;;;;;17.44;45.38;98418.88;10247812;28;870;-68
2024/02/07 22:23:53;;;;;;;;;;;;;;;17.42;45.15;98427.81;10247046;28;862;-68
2024/02/07 22:28:49;;;;;;;;;;;;;;;17.40;45.27;98427.09;10247332;28;1898;-68
2024/02/07 22:33:45;;;;;;;;;;;;;;;17.38;45.23;98424.53;10248055;28;1161;-68
2024/02/07 22:38:41;;;;;;;;;;;;;;;17.37;45.37;98424.63;10246474;28;874;-68
2024/02/07 22:43:37;;;;;;;;;;;;;;;17.36;45.36;98417.66;10246990;28;926;-68
2024/02/07 22:48:33;;;;;;;;;;;;;;;17.35;45.31;98426.53;10246053;28;1971;-68
2024/02/07 22:53:28;;;;;;;;;;;;;;;17.33;45.40;98412.59;10245934;28;780;-67
2024/02/07 22:58:24;;;;;;;;;;;;;;;17.32;45.26;98406.50;10246416;28;905;-68
2024/02/07 23:03:21;;;;;;;;;;;;;;;17.30;45.30;98424.16;10245764;28;814;-68
2024/02/07 23:08:17;;;;;;;;;;;;;;;17.27;45.28;98422.56;10245177;28;1906;-68
2024/02/07 23:13:12;;;;;;;;;;;;;;;17.27;45.27;98424.38;10245782;28;817;-68
2024/02/07 23:18:08;;;;;;;;;;;;;;;17.25;45.38;98427.09;10245020;28;770;-68
2024/02/07 23:23:04;;;;;;;;;;;;;;;17.25;45.21;98421.81;10244896;28;774;-68
2024/02/07 23:28:00;;;;;;;;;;;;;;;17.24;45.26;98414.88;10245220;28;1905;-68
2024/02/07 23:32:56;;;;;;;;;;;;;;;17.24;45.30;98420.13;10243945;28;1243;-68
2024/02/07 23:37:52;;;;;;;;;;;;;;;17.22;45.14;98416.75;10244419;28;904;-68
2024/02/07 23:42:48;;;;;;;;;;;;;;;17.22;45.34;98397.47;10244350;28;778;-68
2024/02/07 23:47:44;;;;;;;;;;;;;;;17.20;45.03;98387.03;10244920;28;1914;-68
2024/02/07 23:52:39;;;;;;;;;;;;;;;17.20;45.11;98396.72;10244110;28;819;-68
2024/02/07 23:57:35;;;;;;;;;;;;;;;17.19;45.11;98374.81;10243971;28;836;-68
